Time;durP1;ratioP1;P1;durP2;ratioP2;P2;SDS_P1;SDS_P2;PMS_P1;PMS_P2;Temp;Humidity;BMP_temperature;BMP_pressure;BME280_temperature;BME280_humidity;BME280_pressure;Samples;Min_cycle;Max_cycle;Signal;HPM_P1;HPM_P2
2021/09/28 00:00:11;;;;;;;8.18;7.28;;;;;;;12.74;69.35;101185.94;434273;118;923015;-73
2021/09/28 00:01:17;;;;;;;7.41;6.83;;;;;;;12.76;69.34;101189.31;435404;120;923135;-73
2021/09/28 00:02:21;;;;;;;7.80;7.10;;;;;;;12.78;69.29;101188.06;440815;119;923370;-72
2021/09/28 00:03:25;;;;;;;6.98;5.83;;;;;;;12.80;69.13;101188.66;434503;120;922649;-74
2021/09/28 00:04:28;;;;;;;6.99;5.57;;;;;;;12.82;69.08;101189.30;444423;119;922606;-73
2021/09/28 00:05:33;;;;;;;6.64;6.06;;;;;;;12.83;68.90;101190.98;441705;119;930671;-73
2021/09/28 00:06:37;;;;;;;6.55;6.00;;;;;;;12.84;68.85;101186.36;444410;119;922588;-73
2021/09/28 00:07:41;;;;;;;6.67;6.01;;;;;;;12.86;68.83;101189.70;437345;119;922961;-73
2021/09/28 00:08:44;;;;;;;6.56;5.90;;;;;;;12.86;68.81;101186.97;438623;119;930603;-73
2021/09/28 00:09:47;;;;;;;6.19;5.49;;;;;;;12.87;68.73;101203.18;438892;118;923087;-73
2021/09/28 00:10:51;;;;;;;6.21;5.42;;;;;;;12.88;68.71;101198.55;438049;119;922668;-74
2021/09/28 00:11:54;;;;;;;6.13;5.58;;;;;;;12.89;68.64;101194.77;439793;120;923633;-73
2021/09/28 00:12:58;;;;;;;8.95;6.30;;;;;;;12.89;68.66;101195.61;436854;120;923177;-72
2021/09/28 00:14:02;;;;;;;6.11;5.54;;;;;;;12.90;68.67;101196.45;435917;120;923070;-73
2021/09/28 00:15:08;;;;;;;8.48;6.11;;;;;;;12.91;68.67;101195.37;444519;118;930651;-73
2021/09/28 00:16:12;;;;;;;7.98;5.78;;;;;;;12.91;68.62;101195.37;438331;119;922489;-74
2021/09/28 00:17:15;;;;;;;8.09;6.25;;;;;;;12.91;68.59;101198.11;437637;118;922928;-74
2021/09/28 00:18:18;;;;;;;5.92;5.42;;;;;;;12.90;68.56;101202.73;437244;119;922799;-72
2021/09/28 00:19:22;;;;;;;6.02;5.37;;;;;;;12.91;68.54;101200.84;439232;118;922953;-74
2021/09/28 00:20:26;;;;;;;6.35;5.61;;;;;;;12.91;68.50;101207.16;437138;119;923069;-74
2021/09/28 00:21:30;;;;;;;7.08;5.79;;;;;;;12.92;68.36;101205.27;438753;119;922504;-72
2021/09/28 00:22:34;;;;;;;7.59;5.72;;;;;;;12.90;68.31;101201.92;438880;118;922690;-74
2021/09/28 00:23:37;;;;;;;8.55;5.85;;;;;;;12.89;68.27;101201.08;439884;118;922899;-74
2021/09/28 00:24:41;;;;;;;5.92;5.34;;;;;;;12.88;68.25;101199.39;439673;120;922573;-74
2021/09/28 00:25:44;;;;;;;6.07;5.54;;;;;;;12.89;68.26;101201.08;441189;117;924822;-74
2021/09/28 00:26:48;;;;;;;6.12;5.34;;;;;;;12.90;68.27;101201.92;437299;120;923097;-74
2021/09/28 00:27:51;;;;;;;6.58;5.64;;;;;;;12.89;68.25;101201.08;435150;120;930648;-73
2021/09/28 00:28:54;;;;;;;10.98;5.28;;;;;;;12.90;68.21;101208.21;427396;120;922657;-74
2021/09/28 00:29:59;;;;;;;6.17;5.13;;;;;;;12.91;68.09;101207.16;455369;112;922620;-73
2021/09/28 00:31:02;;;;;;;6.51;5.94;;;;;;;12.90;68.08;101210.14;465860;112;922609;-73
2021/09/28 00:32:06;;;;;;;5.83;5.30;;;;;;;12.89;68.02;101206.55;467284;112;922966;-73
2021/09/28 00:33:11;;;;;;;5.49;4.99;;;;;;;12.89;67.99;101201.08;464525;112;930533;-73
2021/09/28 00:34:16;;;;;;;8.35;5.37;;;;;;;12.87;67.95;101208.66;460550;112;922933;-73
2021/09/28 00:35:19;;;;;;;7.01;5.73;;;;;;;12.86;67.97;101217.07;466507;112;922570;-73
2021/09/28 00:36:23;;;;;;;6.32;5.29;;;;;;;12.84;67.99;101217.31;461392;112;922705;-74
2021/09/28 00:37:27;;;;;;;6.52;5.49;;;;;;;12.83;68.05;101212.88;464656;112;923555;-73
2021/09/28 00:38:30;;;;;;;7.11;5.51;;;;;;;12.82;68.04;101210.35;462099;112;930568;-74
2021/09/28 00:39:34;;;;;;;6.41;4.57;;;;;;;12.80;68.01;101213.30;466188;112;930743;-74
2021/09/28 00:40:38;;;;;;;6.06;5.22;;;;;;;12.79;68.10;101211.61;465726;111;930495;-73
2021/09/28 00:41:42;;;;;;;6.79;4.94;;;;;;;12.79;68.19;101208.05;462835;112;922542;-74
2021/09/28 00:42:46;;;;;;;6.92;5.57;;;;;;;12.78;68.15;101218.16;467701;112;922565;-74
2021/09/28 00:43:53;;;;;;;8.28;5.26;;;;;;;12.78;68.14;101212.69;462735;112;930441;-72
2021/09/28 00:44:57;;;;;;;5.95;5.09;;;;;;;12.76;67.92;101214.78;464591;112;922526;-73
2021/09/28 00:46:00;;;;;;;7.81;5.19;;;;;;;12.71;67.94;101213.74;466149;112;923144;-73
2021/09/28 00:47:06;;;;;;;6.24;5.24;;;;;;;12.68;68.04;101216.92;464670;112;922552;-73
2021/09/28 00:48:10;;;;;;;6.64;4.82;;;;;;;12.67;68.12;101215.23;468764;112;922987;-73
2021/09/28 00:49:13;;;;;;;7.78;5.40;;;;;;;12.66;68.13;101213.55;461494;112;922581;-73
2021/09/28 00:50:18;;;;;;;6.50;5.47;;;;;;;12.65;68.12;101215.44;463100;112;923059;-73
2021/09/28 00:51:21;;;;;;;7.34;5.45;;;;;;;12.64;68.11;101213.75;465625;112;922564;-73
2021/09/28 00:52:25;;;;;;;5.54;5.01;;;;;;;12.64;68.16;101212.91;463791;112;922612;-73
2021/09/28 00:53:30;;;;;;;12.04;5.30;;;;;;;12.61;68.10;101208.72;463779;112;930531;-74
2021/09/28 00:54:37;;;;;;;6.17;4.78;;;;;;;12.57;68.14;101207.44;466392;112;930548;-73
2021/09/28 00:55:40;;;;;;;5.51;4.98;;;;;;;12.56;68.17;101210.41;467924;112;922666;-73
2021/09/28 00:56:44;;;;;;;5.58;4.72;;;;;;;12.52;68.28;101207.23;463399;112;922559;-72
2021/09/28 00:57:47;;;;;;;7.14;5.67;;;;;;;12.49;68.26;101208.52;464279;112;930494;-73
2021/09/28 00:58:52;;;;;;;8.77;4.69;;;;;;;12.47;68.34;101207.03;465188;112;922468;-72
2021/09/28 00:59:56;;;;;;;4.80;4.42;;;;;;;12.45;68.44;101207.27;462326;112;922536;-73
2021/09/28 01:01:02;;;;;;;5.46;4.96;;;;;;;12.44;68.33;101207.47;465013;112;922984;-74
2021/09/28 01:02:06;;;;;;;6.97;4.86;;;;;;;12.41;68.36;101219.66;466868;111;930646;-74
2021/09/28 01:03:12;;;;;;;8.48;5.45;;;;;;;12.40;68.50;101217.16;466380;112;922510;-73
2021/09/28 01:04:18;;;;;;;7.83;5.04;;;;;;;12.39;68.60;101218.20;464327;112;923153;-73
2021/09/28 01:05:21;;;;;;;6.52;4.73;;;;;;;12.38;68.69;101208.31;463250;112;923055;-74
2021/09/28 01:06:26;;;;;;;6.71;5.28;;;;;;;12.38;68.71;101213.78;468280;112;923035;-73
2021/09/28 01:07:31;;;;;;;5.85;5.19;;;;;;;12.37;68.66;101217.56;462581;111;922723;-73
2021/09/28 01:08:35;;;;;;;7.07;5.45;;;;;;;12.36;68.67;101213.14;462826;112;930506;-73
2021/09/28 01:09:39;;;;;;;6.26;5.16;;;;;;;12.33;68.68;101216.31;465271;111;930488;-73
2021/09/28 01:10:44;;;;;;;5.94;5.11;;;;;;;12.31;68.69;101221.14;465370;112;922963;-74
2021/09/28 01:11:48;;;;;;;7.74;5.28;;;;;;;12.26;68.74;101219.05;463716;112;922590;-73
2021/09/28 01:12:52;;;;;;;6.19;4.61;;;;;;;12.25;68.82;101224.71;462024;112;923095;-73
2021/09/28 01:13:55;;;;;;;6.29;4.46;;;;;;;12.23;68.84;101222.21;466086;112;923019;-73
2021/09/28 01:14:59;;;;;;;8.99;5.60;;;;;;;12.25;68.75;101224.71;461599;112;922447;-72
2021/09/28 01:16:07;;;;;;;6.43;4.67;;;;;;;12.25;68.70;101227.45;461672;112;930542;-73
2021/09/28 01:17:16;;;;;;;8.73;5.00;;;;;;;12.25;68.72;101222.82;466667;112;930391;-73
2021/09/28 01:18:19;;;;;;;9.83;4.74;;;;;;;12.24;68.59;101223.05;464419;111;922581;-73
2021/09/28 01:19:23;;;;;;;7.33;4.69;;;;;;;12.23;68.62;101226.84;465787;112;922661;-74
2021/09/28 01:20:27;;;;;;;10.20;4.39;;;;;;;12.22;68.63;101222.41;461927;112;923624;-73
2021/09/28 01:21:31;;;;;;;7.66;4.17;;;;;;;12.21;68.50;101231.66;461358;112;930609;-74
2021/09/28 01:22:35;;;;;;;6.75;5.45;;;;;;;12.20;68.42;101232.70;461643;112;930825;-73
2021/09/28 01:23:44;;;;;;;8.24;4.90;;;;;;;12.18;68.29;101227.47;464230;112;930510;-73
2021/09/28 01:24:47;;;;;;;8.79;4.93;;;;;;;12.17;68.25;101230.41;466100;112;922548;-73
2021/09/28 01:25:51;;;;;;;9.72;4.31;;;;;;;12.16;68.19;101236.91;464759;112;922676;-73
2021/09/28 01:26:54;;;;;;;7.91;4.52;;;;;;;12.15;68.15;101232.49;463362;112;923177;-73
2021/09/28 01:27:58;;;;;;;8.60;4.58;;;;;;;12.13;68.22;101231.88;462173;112;930605;-73
2021/09/28 01:29:04;;;;;;;7.24;4.16;;;;;;;12.11;68.34;101240.28;462844;112;922659;-73
2021/09/28 01:30:11;;;;;;;5.58;4.46;;;;;;;12.10;68.37;101236.70;463366;112;922594;-72
2021/09/28 01:31:14;;;;;;;8.92;4.89;;;;;;;12.09;68.44;101248.69;463575;113;922468;-73
2021/09/28 01:32:17;;;;;;;10.58;4.94;;;;;;;12.09;68.39;101245.10;462600;113;922918;-73
2021/09/28 01:33:21;;;;;;;8.19;4.86;;;;;;;12.06;68.35;101240.91;463249;112;922705;-73
2021/09/28 01:34:24;;;;;;;11.77;5.17;;;;;;;12.05;68.23;101233.76;462231;112;923036;-73
2021/09/28 01:35:28;;;;;;;12.64;5.16;;;;;;;12.03;68.15;101241.31;463364;113;930545;-72
2021/09/28 01:36:34;;;;;;;9.79;4.36;;;;;;;12.00;68.18;101239.02;460641;113;922897;-73
2021/09/28 01:37:39;;;;;;;7.53;4.36;;;;;;;12.00;68.19;101240.90;463207;113;923013;-74
2021/09/28 01:38:42;;;;;;;10.61;4.61;;;;;;;11.99;68.18;101244.67;460491;113;922321;-73
2021/09/28 01:39:46;;;;;;;8.89;5.19;;;;;;;11.96;68.13;101243.19;463106;112;922597;-73
2021/09/28 01:40:49;;;;;;;6.46;4.25;;;;;;;11.95;68.13;101238.80;457920;113;923132;-74
2021/09/28 01:41:53;;;;;;;9.55;4.73;;;;;;;11.92;68.14;101247.39;462070;113;922658;-73
2021/09/28 01:42:56;;;;;;;12.58;4.67;;;;;;;11.90;68.23;101244.05;464329;113;923069;-74
2021/09/28 01:44:05;;;;;;;7.35;4.62;;;;;;;11.90;68.27;101240.47;464065;113;930460;-72
2021/09/28 01:45:09;;;;;;;8.88;4.13;;;;;;;11.88;68.32;101245.28;461692;113;922671;-72
2021/09/28 01:46:13;;;;;;;14.06;5.41;;;;;;;11.85;68.34;101246.56;465254;113;922905;-73
2021/09/28 01:47:17;;;;;;;10.47;4.58;;;;;;;11.84;68.38;101244.87;463920;113;922752;-73
2021/09/28 01:48:20;;;;;;;12.45;4.98;;;;;;;11.82;68.37;101244.22;464181;112;930506;-73
2021/09/28 01:49:23;;;;;;;9.78;4.77;;;;;;;11.80;68.43;101245.49;462306;113;922845;-73
2021/09/28 01:50:27;;;;;;;6.62;4.11;;;;;;;11.79;68.48;101236.45;462650;113;922856;-73
2021/09/28 01:51:31;;;;;;;7.00;4.28;;;;;;;11.79;68.55;101243.80;462491;113;922605;-73
2021/09/28 01:53:49;;;;;;;10.06;4.42;;;;;;;11.88;68.48;101248.86;474074;110;946943;-73
2021/09/28 01:54:52;;;;;;;10.58;4.41;;;;;;;11.75;68.46;101246.09;467840;111;922470;-73
2021/09/28 01:55:56;;;;;;;8.02;4.65;;;;;;;11.74;68.47;101246.31;466615;112;923034;-74
2021/09/28 01:56:59;;;;;;;10.10;4.36;;;;;;;11.72;68.49;101249.22;467852;112;931498;-73
2021/09/28 01:58:03;;;;;;;6.29;4.79;;;;;;;11.71;68.48;101244.80;465928;112;922646;-73
2021/09/28 01:59:07;;;;;;;10.64;5.29;;;;;;;11.69;68.48;101241.41;446460;117;922699;-73
2021/09/28 02:00:12;;;;;;;9.96;4.45;;;;;;;11.67;68.50;101249.84;451195;115;930568;-71
2021/09/28 02:01:15;;;;;;;8.22;4.39;;;;;;;11.66;68.48;101250.03;448776;115;922655;-75
2021/09/28 02:02:19;;;;;;;7.81;4.63;;;;;;;11.64;68.48;101252.12;465330;112;922620;-73
2021/09/28 02:03:23;;;;;;;9.11;4.52;;;;;;;11.62;68.52;101256.96;462901;113;923598;-72
2021/09/28 02:04:26;;;;;;;10.14;4.78;;;;;;;11.61;68.52;101258.84;464565;113;922518;-73
2021/09/28 02:05:30;;;;;;;6.41;4.43;;;;;;;11.59;68.52;101251.89;465387;113;922544;-72
2021/09/28 02:06:40;;;;;;;7.68;4.69;;;;;;;11.58;68.54;101252.94;463390;113;923088;-73
2021/09/28 02:07:44;;;;;;;8.39;4.84;;;;;;;11.56;68.56;101249.59;464459;113;922767;-73
2021/09/28 02:08:49;;;;;;;8.51;4.63;;;;;;;11.55;68.68;101258.82;464678;113;923075;-73
2021/09/28 02:09:52;;;;;;;9.33;4.61;;;;;;;11.55;68.71;101256.09;464775;113;922892;-73
2021/09/28 02:10:56;;;;;;;6.18;4.41;;;;;;;11.52;68.61;101257.33;465062;113;931028;-74
2021/09/28 02:12:00;;;;;;;6.87;4.64;;;;;;;11.51;68.62;101258.40;463961;113;922986;-72
2021/09/28 02:13:05;;;;;;;7.35;4.47;;;;;;;11.50;68.65;101250.41;465747;113;922591;-74
2021/09/28 02:14:09;;;;;;;7.77;4.41;;;;;;;11.50;68.70;101264.05;464575;113;922977;-74
2021/09/28 02:15:13;;;;;;;8.05;4.78;;;;;;;11.48;68.71;101255.22;463817;112;922980;-73
2021/09/28 02:16:19;;;;;;;7.65;5.33;;;;;;;11.47;68.75;101257.09;464108;113;922619;-74
2021/09/28 02:17:23;;;;;;;8.95;4.88;;;;;;;11.47;68.85;101261.72;463787;112;922483;-74
2021/09/28 02:18:26;;;;;;;6.49;4.31;;;;;;;11.48;68.84;101257.95;465089;112;923442;-74
2021/09/28 02:19:30;;;;;;;9.73;4.38;;;;;;;11.47;68.79;101258.98;463799;113;922478;-74
2021/09/28 02:20:34;;;;;;;14.89;5.08;;;;;;;11.47;68.74;101261.72;464742;113;930564;-72
2021/09/28 02:21:38;;;;;;;8.61;4.44;;;;;;;11.47;68.76;101262.56;464553;113;930515;-73
2021/09/28 02:22:42;;;;;;;8.72;4.70;;;;;;;11.47;68.80;101265.30;464261;113;930512;-75
2021/09/28 02:23:45;;;;;;;14.76;5.26;;;;;;;11.48;68.85;101257.95;464881;112;923117;-73
2021/09/28 02:24:49;;;;;;;15.81;5.23;;;;;;;11.49;68.72;101263.21;463088;113;922670;-74
2021/09/28 02:25:53;;;;;;;10.21;5.04;;;;;;;11.47;68.57;101259.83;464536;113;922978;-73
2021/09/28 02:26:57;;;;;;;7.88;4.23;;;;;;;11.45;68.60;101261.94;464548;113;922558;-74
2021/09/28 02:28:00;;;;;;;8.53;4.66;;;;;;;11.44;68.76;101256.67;464147;113;922585;-73
2021/09/28 02:29:05;;;;;;;8.38;4.62;;;;;;;11.45;68.79;101258.37;464449;113;930566;-75
2021/09/28 02:30:09;;;;;;;7.09;4.36;;;;;;;11.46;68.82;101262.79;464016;112;922792;-73
2021/09/28 02:31:13;;;;;;;12.51;4.85;;;;;;;11.46;68.78;101262.79;464327;113;922446;-73
2021/09/28 02:32:17;;;;;;;10.68;4.24;;;;;;;11.46;68.73;101266.36;464552;112;922469;-74
2021/09/28 02:33:20;;;;;;;9.74;4.61;;;;;;;11.46;68.72;101269.09;463759;113;931335;-73
2021/09/28 02:34:24;;;;;;;7.76;4.55;;;;;;;11.46;68.46;101260.91;464428;113;930581;-73
2021/09/28 02:35:27;;;;;;;12.33;4.98;;;;;;;11.43;68.37;101269.48;464969;113;922977;-73
2021/09/28 02:36:32;;;;;;;13.96;4.75;;;;;;;11.41;68.43;101270.75;464260;112;922693;-73
2021/09/28 02:37:35;;;;;;;11.20;4.92;;;;;;;11.39;68.47;101270.95;464157;113;930495;-74
2021/09/28 02:38:39;;;;;;;7.36;4.05;;;;;;;11.38;68.43;101273.87;464690;113;930504;-74
2021/09/28 02:39:43;;;;;;;10.51;5.00;;;;;;;11.33;68.34;101263.56;464740;113;922641;-73
2021/09/28 02:40:46;;;;;;;9.45;4.89;;;;;;;11.30;68.40;101272.98;464303;112;923021;-73
2021/09/28 02:41:49;;;;;;;10.43;5.51;;;;;;;11.26;68.35;101268.14;464044;113;922639;-73
2021/09/28 02:42:54;;;;;;;13.58;5.14;;;;;;;11.22;68.34;101270.45;464228;113;922913;-73
2021/09/28 02:43:57;;;;;;;12.28;5.21;;;;;;;11.16;68.44;101273.98;464613;113;930495;-74
2021/09/28 02:45:00;;;;;;;13.41;4.31;;;;;;;11.12;68.46;101274.59;465101;113;922531;-74
2021/09/28 02:46:04;;;;;;;8.44;4.39;;;;;;;11.06;68.48;101275.39;463948;113;930558;-74
2021/09/28 02:47:08;;;;;;;12.32;4.84;;;;;;;11.01;68.59;101269.70;465473;112;923090;-73
2021/09/28 02:48:12;;;;;;;6.24;4.11;;;;;;;10.97;68.72;101274.69;464406;113;922584;-74
2021/09/28 02:49:15;;;;;;;8.77;4.54;;;;;;;10.95;68.86;101271.34;463882;112;923043;-72
2021/09/28 02:50:19;;;;;;;10.70;4.49;;;;;;;10.93;68.89;101267.96;465629;112;922553;-73
2021/09/28 02:51:23;;;;;;;4.87;4.37;;;;;;;10.92;68.95;101273.61;464786;113;922493;-73
2021/09/28 02:52:26;;;;;;;8.61;4.24;;;;;;;10.88;68.96;101275.91;464163;113;930524;-73
2021/09/28 02:53:30;;;;;;;11.44;4.74;;;;;;;10.84;68.99;101270.02;463376;113;924050;-71
2021/09/28 02:54:33;;;;;;;9.59;4.21;;;;;;;10.83;69.09;101279.23;464788;113;931029;-73
2021/09/28 02:55:37;;;;;;;8.08;3.98;;;;;;;10.81;69.15;101277.73;465213;112;923094;-72
2021/09/28 02:56:41;;;;;;;8.58;3.97;;;;;;;10.78;69.19;101276.27;465093;113;930589;-73
2021/09/28 02:57:45;;;;;;;15.26;4.19;;;;;;;10.77;69.28;101276.45;464113;113;930606;-73
2021/09/28 02:58:48;;;;;;;9.66;4.39;;;;;;;10.77;69.35;101279.19;465774;113;922997;-72
2021/09/28 02:59:52;;;;;;;8.95;4.03;;;;;;;10.76;69.33;101283.80;464075;113;930475;-72
2021/09/28 03:00:56;;;;;;;10.33;4.27;;;;;;;10.75;69.33;101281.29;464697;113;922572;-73
2021/09/28 03:01:59;;;;;;;11.57;4.64;;;;;;;10.74;69.41;101280.44;464593;113;922478;-72
2021/09/28 03:03:03;;;;;;;10.44;4.08;;;;;;;10.75;69.45;101284.02;464014;112;930708;-73
2021/09/28 03:04:06;;;;;;;10.17;4.28;;;;;;;10.76;69.52;101283.80;464406;113;922592;-73
2021/09/28 03:05:10;;;;;;;13.20;4.56;;;;;;;10.79;69.55;101277.95;462940;113;930603;-74
2021/09/28 03:06:14;;;;;;;6.09;4.02;;;;;;;10.81;69.51;101283.19;463503;113;930640;-73
2021/09/28 03:07:17;;;;;;;12.74;4.20;;;;;;;10.82;69.46;101287.61;464774;113;922578;-73
2021/09/28 03:08:20;;;;;;;8.99;4.40;;;;;;;10.82;69.50;101285.73;462761;112;922866;-73
2021/09/28 03:09:24;;;;;;;7.17;3.83;;;;;;;10.83;69.50;101294.76;463718;112;923093;-73
2021/09/28 03:10:28;;;;;;;8.48;3.96;;;;;;;10.84;69.43;101288.27;463772;113;930446;-73
2021/09/28 03:11:32;;;;;;;5.50;3.94;;;;;;;10.85;69.39;101285.34;464132;113;922647;-73
2021/09/28 03:12:35;;;;;;;11.78;4.01;;;;;;;10.87;69.39;101299.61;464953;113;930535;-72
2021/09/28 03:13:38;;;;;;;7.48;4.00;;;;;;;10.86;69.32;101292.47;447822;118;922784;-73
2021/09/28 03:14:42;;;;;;;14.14;4.26;;;;;;;10.86;69.32;101291.65;454226;114;922741;-73
2021/09/28 03:15:45;;;;;;;9.58;4.21;;;;;;;10.85;69.30;101296.27;463260;112;928801;-73
2021/09/28 03:16:50;;;;;;;10.09;4.89;;;;;;;10.86;69.31;101300.65;464616;113;923035;-74
2021/09/28 03:17:54;;;;;;;8.39;4.53;;;;;;;10.85;69.24;101300.88;463818;112;922538;-73
2021/09/28 03:18:57;;;;;;;9.91;4.76;;;;;;;10.84;69.15;101301.91;463494;112;922526;-74
2021/09/28 03:20:00;;;;;;;10.46;4.33;;;;;;;10.83;69.17;101292.88;464047;113;923478;-73
2021/09/28 03:21:04;;;;;;;7.41;4.09;;;;;;;10.81;68.96;101296.83;463328;112;922944;-74
2021/09/28 03:22:07;;;;;;;10.86;5.10;;;;;;;10.80;69.06;101298.75;464670;113;922630;-74
2021/09/28 03:23:11;;;;;;;14.18;4.72;;;;;;;10.79;69.13;101301.66;465055;112;922663;-74
2021/09/28 03:24:14;;;;;;;8.20;3.77;;;;;;;10.76;69.06;101302.05;464251;112;930690;-72
2021/09/28 03:25:17;;;;;;;9.58;4.03;;;;;;;10.74;69.06;101296.81;464536;113;922486;-73
2021/09/28 03:26:22;;;;;;;8.32;4.45;;;;;;;10.73;69.13;101299.73;465545;112;923015;-73
2021/09/28 03:27:26;;;;;;;6.89;4.21;;;;;;;10.71;69.20;101302.64;465096;113;930583;-73
2021/09/28 03:28:31;;;;;;;6.04;4.43;;;;;;;10.72;69.32;101301.61;462556;113;923287;-72
2021/09/28 03:29:35;;;;;;;12.93;4.85;;;;;;;10.74;69.39;101304.98;454485;115;922528;-74
2021/09/28 03:30:39;;;;;;;10.85;4.79;;;;;;;10.75;69.36;101303.92;465070;113;923059;-72
2021/09/28 03:31:42;;;;;;;6.87;4.31;;;;;;;10.76;69.46;101300.16;463861;113;922603;-73
2021/09/28 03:32:46;;;;;;;11.45;4.17;;;;;;;10.79;69.49;101304.39;463229;113;931007;-74
2021/09/28 03:33:49;;;;;;;11.53;4.41;;;;;;;10.81;69.47;101303.13;463472;113;923051;-74
2021/09/28 03:34:53;;;;;;;12.68;4.06;;;;;;;10.83;69.45;101311.13;464576;112;923366;-73
2021/09/28 03:35:56;;;;;;;10.18;4.56;;;;;;;10.86;69.37;101310.75;466116;112;930367;-73
2021/09/28 03:37:00;;;;;;;8.35;4.06;;;;;;;10.87;69.17;101313.25;465285;113;922507;-73
2021/09/28 03:38:03;;;;;;;8.30;4.42;;;;;;;10.87;69.06;101307.80;465340;113;930531;-72
2021/09/28 03:39:06;;;;;;;12.23;4.42;;;;;;;10.89;69.08;101310.34;464972;112;930429;-72
2021/09/28 03:40:12;;;;;;;10.82;4.94;;;;;;;10.90;69.18;101309.30;464371;113;922943;-73
2021/09/28 03:41:16;;;;;;;8.78;4.17;;;;;;;10.91;69.18;101310.14;463981;113;922808;-73
2021/09/28 03:42:20;;;;;;;9.98;4.05;;;;;;;10.94;69.25;101317.92;463992;113;922608;-74
2021/09/28 03:43:26;;;;;;;14.66;4.88;;;;;;;10.97;69.31;101312.08;463764;113;930503;-73
2021/09/28 03:44:28;;;;;;;10.97;5.11;;;;;;;11.00;69.33;101315.23;463593;113;930618;-73
2021/09/28 03:45:32;;;;;;;14.02;4.36;;;;;;;11.05;69.28;101306.45;464793;113;922585;-73
2021/09/28 03:46:37;;;;;;;11.08;5.39;;;;;;;11.08;69.03;101317.80;463259;113;923143;-73
2021/09/28 03:47:41;;;;;;;10.18;4.49;;;;;;;11.09;68.97;101316.76;452161;114;922707;-74
2021/09/28 03:48:44;;;;;;;14.01;4.49;;;;;;;11.15;68.93;101315.11;452790;113;930597;-73
2021/09/28 03:49:48;;;;;;;13.52;5.51;;;;;;;11.15;68.93;101315.11;464817;113;930604;-74
2021/09/28 03:50:51;;;;;;;15.34;4.59;;;;;;;11.16;68.84;101312.19;464817;112;930488;-74
2021/09/28 03:51:55;;;;;;;15.65;4.37;;;;;;;11.16;68.68;101312.19;464298;113;930574;-73
2021/09/28 03:52:59;;;;;;;10.88;4.43;;;;;;;11.17;68.62;101313.03;464185;113;922740;-73
2021/09/28 03:54:02;;;;;;;13.27;4.24;;;;;;;11.18;68.62;101314.73;463466;112;922965;-73
2021/09/28 03:55:06;;;;;;;7.87;3.83;;;;;;;11.20;68.60;101307.16;464795;112;922980;-71
2021/09/28 03:56:10;;;;;;;11.12;3.75;;;;;;;11.22;68.52;101311.39;463176;113;930428;-73
2021/09/28 03:57:14;;;;;;;10.76;4.21;;;;;;;11.25;68.47;101315.59;466004;112;922889;-74
2021/09/28 03:58:17;;;;;;;11.56;4.42;;;;;;;11.28;68.54;101318.78;464417;112;923057;-71
2021/09/28 03:59:20;;;;;;;11.97;4.39;;;;;;;11.33;68.51;101322.78;464140;112;930571;-73
2021/09/28 04:00:24;;;;;;;10.71;4.25;;;;;;;11.33;68.51;101322.78;463950;112;930579;-74
2021/09/28 04:01:28;;;;;;;11.24;4.33;;;;;;;11.34;68.36;101319.86;463936;113;930687;-72
2021/09/28 04:02:31;;;;;;;14.81;4.41;;;;;;;11.35;68.26;101327.02;464420;113;930484;-73
2021/09/28 04:03:35;;;;;;;11.46;4.84;;;;;;;11.35;68.26;101323.44;464092;112;922499;-73
2021/09/28 04:04:38;;;;;;;8.84;4.15;;;;;;;11.38;68.04;101336.67;464048;112;930593;-73
2021/09/28 04:05:42;;;;;;;13.46;4.86;;;;;;;11.36;68.02;101328.67;463181;112;923036;-73
2021/09/28 04:06:46;;;;;;;13.26;5.11;;;;;;;11.36;68.02;101325.94;463759;113;922978;-73
2021/09/28 04:07:49;;;;;;;11.03;4.86;;;;;;;11.36;68.00;101327.86;464820;113;922667;-74
2021/09/28 04:08:52;;;;;;;9.73;4.28;;;;;;;11.36;68.08;101336.05;465104;113;922585;-74
2021/09/28 04:09:56;;;;;;;12.15;4.56;;;;;;;11.36;68.17;101334.13;464519;113;922857;-74
2021/09/28 04:11:00;;;;;;;16.36;5.28;;;;;;;11.40;68.21;101334.59;463742;113;922632;-74
2021/09/28 04:12:04;;;;;;;11.63;4.97;;;;;;;11.43;68.18;101335.02;463834;113;922549;-72
2021/09/28 04:13:09;;;;;;;13.62;4.53;;;;;;;11.46;68.05;101331.91;463420;113;923148;-73
2021/09/28 04:14:16;;;;;;;19.96;5.07;;;;;;;11.49;67.98;101336.95;462466;113;922438;-73
2021/09/28 04:15:24;;;;;;;11.98;4.36;;;;;;;11.52;67.97;101341.98;464227;113;922612;-73
2021/09/28 04:16:28;;;;;;;8.73;4.84;;;;;;;11.57;67.97;101339.52;462966;113;922543;-74
2021/09/28 04:17:31;;;;;;;10.48;4.41;;;;;;;11.61;67.80;101338.06;464166;113;922568;-74
2021/09/28 04:18:35;;;;;;;20.39;5.64;;;;;;;11.64;67.65;101337.64;463719;113;922975;-73
2021/09/28 04:19:38;;;;;;;11.76;4.89;;;;;;;11.66;67.49;101341.02;464323;113;922559;-74
2021/09/28 04:20:44;;;;;;;13.83;5.11;;;;;;;11.67;67.38;101337.25;463462;112;928048;-74
2021/09/28 04:21:49;;;;;;;14.97;5.51;;;;;;;11.69;67.34;101340.60;455781;114;922677;-74
2021/09/28 04:22:54;;;;;;;10.07;5.07;;;;;;;11.69;67.32;101342.48;456321;113;923243;-75
2021/09/28 04:23:58;;;;;;;12.54;4.72;;;;;;;11.69;67.25;101337.02;463564;112;922527;-75
2021/09/28 04:25:04;;;;;;;12.67;5.42;;;;;;;11.69;67.11;101340.60;464402;113;922503;-74
2021/09/28 04:26:08;;;;;;;18.87;5.41;;;;;;;11.69;67.01;101337.88;462551;112;930549;-74
2021/09/28 04:27:12;;;;;;;11.07;4.23;;;;;;;11.68;67.03;101344.41;465367;112;922984;-74
2021/09/28 04:28:16;;;;;;;13.92;4.84;;;;;;;11.71;67.14;101343.14;465322;112;922587;-75
2021/09/28 04:29:19;;;;;;;11.55;5.02;;;;;;;11.73;67.08;101346.55;464251;112;922679;-74
2021/09/28 04:30:23;;;;;;;20.84;6.45;;;;;;;11.74;66.95;101341.94;463585;112;923005;-74
2021/09/28 04:31:27;;;;;;;12.26;5.65;;;;;;;11.75;67.03;101352.64;463614;113;922995;-74
2021/09/28 04:32:31;;;;;;;13.99;5.19;;;;;;;11.78;67.11;101351.41;464689;112;922897;-74
2021/09/28 04:33:34;;;;;;;12.00;5.06;;;;;;;11.80;67.07;101350.13;463687;113;922606;-73
2021/09/28 04:34:38;;;;;;;15.09;5.35;;;;;;;11.82;67.07;101349.94;463868;113;922821;-75
2021/09/28 04:35:42;;;;;;;13.14;5.49;;;;;;;11.84;67.06;101353.32;464266;113;922462;-74
2021/09/28 04:36:47;;;;;;;19.39;5.11;;;;;;;11.86;66.95;101345.74;464179;113;922676;-75
2021/09/28 04:37:50;;;;;;;20.65;5.19;;;;;;;11.88;66.93;101349.13;465009;113;922521;-75
2021/09/28 04:38:56;;;;;;;16.18;5.06;;;;;;;11.90;66.96;101355.23;464220;113;922723;-73
2021/09/28 04:39:59;;;;;;;14.61;5.56;;;;;;;11.91;66.97;101349.55;462473;113;922607;-76
2021/09/28 04:41:03;;;;;;;15.35;5.53;;;;;;;11.93;66.85;101358.39;462457;112;923198;-75
2021/09/28 04:42:06;;;;;;;27.94;7.89;;;;;;;11.93;66.74;101352.93;464140;112;922519;-75
2021/09/28 04:43:10;;;;;;;16.91;5.51;;;;;;;11.92;66.82;101353.97;462069;113;922652;-74
2021/09/28 04:44:13;;;;;;;15.46;5.65;;;;;;;11.93;66.76;101352.93;463762;111;922701;-74
2021/09/28 04:45:19;;;;;;;11.61;4.55;;;;;;;11.91;66.66;101355.01;463993;112;930691;-74
2021/09/28 04:46:25;;;;;;;12.51;4.63;;;;;;;11.92;66.59;101351.23;463490;113;922846;-73
2021/09/28 04:47:29;;;;;;;19.31;5.26;;;;;;;11.91;66.51;101359.66;464919;113;922826;-74
2021/09/28 04:48:33;;;;;;;13.43;4.45;;;;;;;11.89;66.55;101359.86;464759;113;922962;-74
2021/09/28 04:49:37;;;;;;;11.72;5.67;;;;;;;11.89;66.53;101361.75;464277;113;930503;-74
2021/09/28 04:50:42;;;;;;;11.54;4.38;;;;;;;11.88;66.49;101355.44;463789;113;923504;-73
2021/09/28 04:51:45;;;;;;;13.35;4.64;;;;;;;11.87;66.49;101363.83;447065;117;923608;-73
2021/09/28 04:52:48;;;;;;;10.00;4.46;;;;;;;11.85;66.52;101361.33;455809;114;922612;-74
2021/09/28 04:53:52;;;;;;;12.46;5.38;;;;;;;11.85;66.49;101361.33;464995;113;923018;-73